Airfield :
LOGIN :

Register | Disclaimer

   EN    FR    IT 

 










Legend :    VFR   Marginal VFR   IFR   Intensive IFR   Very Intensive IFR
Visi :
Ceiling :
>= 8 km
>= 3000ft
5 to 8 km
1000 to 3000 ft
1500m to 5 km
500 to 1000 ft
800 to 1500m
200 to 500 ft
< 800m
< 200 ft
Symbols :   Thunderstorms  Fog  Heavy snow  Heavy precipitations  Wind > 20 kt
SIGMETs :     Misc.  Thunderstorms  Icing  Turbulence  Mountain Waves  Volcanic Ashes







- Airport Elevation : 768 ft
- IATA code : MXP


LIMC - Milano Malpensa

CURRENT METAR :
  • 222350Z VRB02KT 1200 R35R/0275D R17L/1400U R35L/0250D BCFG SCT004 02/02 Q1017 NOSIG

EXPIRED METARs :
  • 222320Z 35003KT 1800 R35R/0250D R17L/0500V1200U R35L/0750VP1500U BCFG SCT005 01/01 Q1017 NOSIG
  • 222250Z VRB01KT 1800 R35R/0250V0800U R17L/1400U R35L/0250VP1500D BCFG SCT008 03/03 Q1017 NOSIG
  • 222220Z 08003KT 030V160 2000 R35R/0500D R17L/0600D R35L/0225D BCFG NSC 02/02 Q1017 NOSIG
  • 222150Z 01003KT 350V050 2500 R35R/0550V0800D R17L/1100U R35L/P1500N BCFG NSC 03/03 Q1017 NOSIG
  • 222120Z 03002KT 2500 R35R/0900U R17L/0450D R35L/P1500N BCFG NSC 03/03 Q1017 NOSIG

TAF TAF LIMC
Valid from the 23 at 00:00 until the 24 at 06:00 UTC


222300Z 2300/2406 VRB05KT 0200 FG NSC
BECMG 2308/2311 2000 BR BKN016
BECMG 2318/2321 1100 BCFG
No reported NOTAMs for that airfield.



MET'MAP, your aeronautical weather chart ! - Copyright ORBIFLY December 2007 - Disclaimer

ORBIFLY MET'MAP TEAM :

Programming & Development : Alexandra Zaïnal
Concept & Development : Baudouin d'Aumeries
Co-Development & Prog : Marc-Olivier Méhu
Technical & hardware support : Manuel Goepfert

Contact : metmap@orbifly.com




SOURCES & CREDITS :

   NOAA